sensor_id;sensor_type;location;lat;lon;timestamp;P1;durP1;ratioP1;P2;durP2;ratioP2
29416;SDS011;28421;51.030;4.006;2022-12-22T06:01:31;46.00;;;20.05;;
29416;SDS011;28421;51.030;4.006;2022-12-22T06:03:57;49.72;;;23.38;;
29416;SDS011;28421;51.030;4.006;2022-12-22T06:06:22;49.75;;;22.02;;
29416;SDS011;28421;51.030;4.006;2022-12-22T06:08:48;53.85;;;24.27;;
29416;SDS011;28421;51.030;4.006;2022-12-22T06:11:13;54.00;;;21.83;;
29416;SDS011;28421;51.030;4.006;2022-12-22T06:13:42;47.80;;;20.30;;
29416;SDS011;28421;51.030;4.006;2022-12-22T06:16:08;49.10;;;21.25;;
29416;SDS011;28421;51.030;4.006;2022-12-22T06:18:34;52.35;;;21.83;;
29416;SDS011;28421;51.030;4.006;2022-12-22T06:20:59;45.95;;;20.67;;
29416;SDS011;28421;51.030;4.006;2022-12-22T06:23:24;46.65;;;20.60;;
29416;SDS011;28421;51.030;4.006;2022-12-22T06:25:54;44.25;;;20.38;;
29416;SDS011;28421;51.030;4.006;2022-12-22T06:28:24;52.67;;;22.93;;
29416;SDS011;28421;51.030;4.006;2022-12-22T06:30:50;44.50;;;21.52;;
29416;SDS011;28421;51.030;4.006;2022-12-22T06:33:15;59.35;;;24.55;;
29416;SDS011;28421;51.030;4.006;2022-12-22T06:35:41;61.25;;;26.60;;
29416;SDS011;28421;51.030;4.006;2022-12-22T06:38:06;68.75;;;26.13;;
29416;SDS011;28421;51.030;4.006;2022-12-22T06:40:31;55.58;;;25.58;;
29416;SDS011;28421;51.030;4.006;2022-12-22T06:42:57;58.53;;;25.70;;
29416;SDS011;28421;51.030;4.006;2022-12-22T06:45:38;54.35;;;24.42;;
29416;SDS011;28421;51.030;4.006;2022-12-22T06:48:05;57.83;;;24.20;;
29416;SDS011;28421;51.030;4.006;2022-12-22T06:50:32;49.10;;;21.17;;
29416;SDS011;28421;51.030;4.006;2022-12-22T06:52:57;57.10;;;24.40;;
29416;SDS011;28421;51.030;4.006;2022-12-22T06:55:23;58.10;;;24.20;;
29416;SDS011;28421;51.030;4.006;2022-12-22T06:57:48;54.92;;;24.63;;
29416;SDS011;28421;51.030;4.006;2022-12-22T07:00:14;48.90;;;22.15;;
29416;SDS011;28421;51.030;4.006;2022-12-22T07:02:39;60.28;;;22.17;;
29416;SDS011;28421;51.030;4.006;2022-12-22T07:05:05;47.83;;;22.70;;
29416;SDS011;28421;51.030;4.006;2022-12-22T07:07:30;42.40;;;19.90;;
29416;SDS011;28421;51.030;4.006;2022-12-22T07:09:55;51.08;;;21.25;;
29416;SDS011;28421;51.030;4.006;2022-12-22T07:12:21;50.85;;;23.27;;
29416;SDS011;28421;51.030;4.006;2022-12-22T07:14:48;49.70;;;23.90;;
29416;SDS011;28421;51.030;4.006;2022-12-22T07:17:13;42.60;;;21.02;;
29416;SDS011;28421;51.030;4.006;2022-12-22T07:19:39;48.05;;;22.33;;
29416;SDS011;28421;51.030;4.006;2022-12-22T07:22:04;60.47;;;26.20;;
29416;SDS011;28421;51.030;4.006;2022-12-22T07:24:29;52.05;;;23.95;;
29416;SDS011;28421;51.030;4.006;2022-12-22T07:26:55;49.42;;;22.98;;
29416;SDS011;28421;51.030;4.006;2022-12-22T07:29:20;56.45;;;25.50;;
29416;SDS011;28421;51.030;4.006;2022-12-22T07:31:46;53.70;;;24.42;;
29416;SDS011;28421;51.030;4.006;2022-12-22T07:34:12;54.03;;;24.73;;
29416;SDS011;28421;51.030;4.006;2022-12-22T07:36:49;55.05;;;24.80;;
29416;SDS011;28421;51.030;4.006;2022-12-22T07:39:15;52.40;;;25.15;;
29416;SDS011;28421;51.030;4.006;2022-12-22T07:41:40;45.80;;;21.83;;
29416;SDS011;28421;51.030;4.006;2022-12-22T07:44:24;48.33;;;22.33;;
29416;SDS011;28421;51.030;4.006;2022-12-22T07:46:50;56.25;;;24.52;;
29416;SDS011;28421;51.030;4.006;2022-12-22T07:49:15;55.72;;;25.38;;
29416;SDS011;28421;51.030;4.006;2022-12-22T07:51:59;58.45;;;25.85;;
29416;SDS011;28421;51.030;4.006;2022-12-22T07:54:25;66.45;;;24.15;;
29416;SDS011;28421;51.030;4.006;2022-12-22T07:56:51;54.10;;;24.48;;
29416;SDS011;28421;51.030;4.006;2022-12-22T07:59:17;60.65;;;25.20;;
29416;SDS011;28421;51.030;4.006;2022-12-22T08:01:43;63.65;;;23.98;;
29416;SDS011;28421;51.030;4.006;2022-12-22T08:04:09;69.07;;;25.15;;
29416;SDS011;28421;51.030;4.006;2022-12-22T08:06:35;70.47;;;24.42;;
29416;SDS011;28421;51.030;4.006;2022-12-22T08:09:00;68.35;;;22.77;;
29416;SDS011;28421;51.030;4.006;2022-12-22T08:11:27;63.00;;;22.40;;
29416;SDS011;28421;51.030;4.006;2022-12-22T08:13:53;68.38;;;25.70;;
29416;SDS011;28421;51.030;4.006;2022-12-22T08:16:18;69.68;;;24.92;;
29416;SDS011;28421;51.030;4.006;2022-12-22T08:18:45;62.97;;;25.15;;
29416;SDS011;28421;51.030;4.006;2022-12-22T08:21:11;62.67;;;23.33;;
29416;SDS011;28421;51.030;4.006;2022-12-22T08:23:36;69.97;;;25.83;;
29416;SDS011;28421;51.030;4.006;2022-12-22T08:26:13;72.80;;;24.00;;
29416;SDS011;28421;51.030;4.006;2022-12-22T08:29:02;51.33;;;22.92;;
29416;SDS011;28421;51.030;4.006;2022-12-22T08:31:39;65.22;;;25.13;;
29416;SDS011;28421;51.030;4.006;2022-12-22T08:34:07;59.58;;;21.85;;
29416;SDS011;28421;51.030;4.006;2022-12-22T08:36:35;56.30;;;22.70;;
29416;SDS011;28421;51.030;4.006;2022-12-22T08:39:04;60.53;;;22.30;;
29416;SDS011;28421;51.030;4.006;2022-12-22T08:41:30;63.92;;;24.17;;
29416;SDS011;28421;51.030;4.006;2022-12-22T08:44:25;53.88;;;22.95;;
29416;SDS011;28421;51.030;4.006;2022-12-22T08:46:53;51.45;;;22.42;;
29416;SDS011;28421;51.030;4.006;2022-12-22T08:49:20;48.97;;;21.25;;
29416;SDS011;28421;51.030;4.006;2022-12-22T08:51:46;52.47;;;22.02;;
29416;SDS011;28421;51.030;4.006;2022-12-22T08:54:13;52.25;;;23.13;;
29416;SDS011;28421;51.030;4.006;2022-12-22T08:56:39;62.25;;;22.75;;
29416;SDS011;28421;51.030;4.006;2022-12-22T08:59:04;56.30;;;24.52;;
29416;SDS011;28421;51.030;4.006;2022-12-22T09:01:32;52.90;;;22.38;;
29416;SDS011;28421;51.030;4.006;2022-12-22T09:04:00;53.30;;;25.55;;
29416;SDS011;28421;51.030;4.006;2022-12-22T09:06:26;57.70;;;24.75;;
29416;SDS011;28421;51.030;4.006;2022-12-22T09:08:59;54.50;;;24.65;;
29416;SDS011;28421;51.030;4.006;2022-12-22T09:13:54;46.75;;;23.30;;
29416;SDS011;28421;51.030;4.006;2022-12-22T09:16:21;39.95;;;19.83;;
29416;SDS011;28421;51.030;4.006;2022-12-22T09:18:47;45.53;;;23.73;;
29416;SDS011;28421;51.030;4.006;2022-12-22T09:21:13;54.70;;;24.02;;
29416;SDS011;28421;51.030;4.006;2022-12-22T09:23:39;42.58;;;22.20;;
29416;SDS011;28421;51.030;4.006;2022-12-22T09:26:08;46.28;;;21.83;;
29416;SDS011;28421;51.030;4.006;2022-12-22T09:28:35;44.25;;;22.30;;
29416;SDS011;28421;51.030;4.006;2022-12-22T09:31:02;55.03;;;23.95;;
29416;SDS011;28421;51.030;4.006;2022-12-22T09:33:28;45.90;;;22.13;;
29416;SDS011;28421;51.030;4.006;2022-12-22T09:35:53;53.53;;;23.63;;
29416;SDS011;28421;51.030;4.006;2022-12-22T09:38:19;53.90;;;23.98;;
29416;SDS011;28421;51.030;4.006;2022-12-22T09:40:44;74.95;;;32.53;;
29416;SDS011;28421;51.030;4.006;2022-12-22T09:43:14;72.78;;;30.27;;
29416;SDS011;28421;51.030;4.006;2022-12-22T09:45:41;86.30;;;36.50;;
29416;SDS011;28421;51.030;4.006;2022-12-22T09:48:09;77.72;;;33.42;;
29416;SDS011;28421;51.030;4.006;2022-12-22T09:50:38;87.18;;;33.85;;
29416;SDS011;28421;51.030;4.006;2022-12-22T09:53:06;97.07;;;35.28;;
29416;SDS011;28421;51.030;4.006;2022-12-22T09:58:30;92.32;;;36.45;;
29416;SDS011;28421;51.030;4.006;2022-12-22T10:03:32;92.35;;;38.22;;
29416;SDS011;28421;51.030;4.006;2022-12-22T10:06:31;84.57;;;35.90;;
29416;SDS011;28421;51.030;4.006;2022-12-22T10:09:15;65.13;;;31.00;;
29416;SDS011;28421;51.030;4.006;2022-12-22T10:11:54;84.18;;;33.45;;
29416;SDS011;28421;51.030;4.006;2022-12-22T10:14:32;65.47;;;30.42;;
29416;SDS011;28421;51.030;4.006;2022-12-22T10:17:13;68.40;;;28.17;;
29416;SDS011;28421;51.030;4.006;2022-12-22T10:22:24;56.50;;;26.30;;
29416;SDS011;28421;51.030;4.006;2022-12-22T10:24:52;55.67;;;26.10;;
29416;SDS011;28421;51.030;4.006;2022-12-22T10:27:20;55.97;;;25.45;;
29416;SDS011;28421;51.030;4.006;2022-12-22T10:29:47;50.80;;;24.00;;
29416;SDS011;28421;51.030;4.006;2022-12-22T10:32:14;48.97;;;24.35;;
29416;SDS011;28421;51.030;4.006;2022-12-22T10:34:57;51.78;;;24.38;;
29416;SDS011;28421;51.030;4.006;2022-12-22T10:37:57;61.92;;;24.92;;
29416;SDS011;28421;51.030;4.006;2022-12-22T10:40:17;53.92;;;24.95;;
29416;SDS011;28421;51.030;4.006;2022-12-22T10:42:45;57.90;;;27.92;;
29416;SDS011;28421;51.030;4.006;2022-12-22T10:45:22;44.83;;;23.17;;
29416;SDS011;28421;51.030;4.006;2022-12-22T10:47:51;45.58;;;22.20;;
29416;SDS011;28421;51.030;4.006;2022-12-22T10:50:18;42.35;;;22.75;;
29416;SDS011;28421;51.030;4.006;2022-12-22T10:52:53;39.53;;;21.33;;
29416;SDS011;28421;51.030;4.006;2022-12-22T10:55:23;48.55;;;22.23;;
29416;SDS011;28421;51.030;4.006;2022-12-22T10:57:50;41.03;;;20.48;;
29416;SDS011;28421;51.030;4.006;2022-12-22T11:00:26;46.53;;;22.63;;
29416;SDS011;28421;51.030;4.006;2022-12-22T11:02:54;51.45;;;24.65;;
29416;SDS011;28421;51.030;4.006;2022-12-22T11:05:21;36.13;;;20.38;;
29416;SDS011;28421;51.030;4.006;2022-12-22T11:07:46;36.70;;;19.25;;
29416;SDS011;28421;51.030;4.006;2022-12-22T11:10:17;33.22;;;17.88;;
29416;SDS011;28421;51.030;4.006;2022-12-22T11:15:47;26.33;;;15.23;;
29416;SDS011;28421;51.030;4.006;2022-12-22T11:23:55;27.65;;;13.13;;
29416;SDS011;28421;51.030;4.006;2022-12-22T11:34:57;22.27;;;11.20;;
29416;SDS011;28421;51.030;4.006;2022-12-22T11:43:20;19.27;;;10.45;;
29416;SDS011;28421;51.030;4.006;2022-12-22T11:53:58;20.58;;;10.98;;
29416;SDS011;28421;51.030;4.006;2022-12-22T11:56:36;16.67;;;9.77;;
29416;SDS011;28421;51.030;4.006;2022-12-22T11:59:09;19.85;;;10.90;;
29416;SDS011;28421;51.030;4.006;2022-12-22T12:01:45;16.80;;;10.52;;
29416;SDS011;28421;51.030;4.006;2022-12-22T12:09:47;18.17;;;9.65;;
29416;SDS011;28421;51.030;4.006;2022-12-22T12:12:33;18.17;;;10.50;;
29416;SDS011;28421;51.030;4.006;2022-12-22T12:25:59;19.50;;;8.73;;
29416;SDS011;28421;51.030;4.006;2022-12-22T12:31:23;16.33;;;8.77;;
29416;SDS011;28421;51.030;4.006;2022-12-22T12:33:54;13.13;;;8.05;;
29416;SDS011;28421;51.030;4.006;2022-12-22T12:39:28;9.02;;;6.47;;
29416;SDS011;28421;51.030;4.006;2022-12-22T12:44:58;7.45;;;5.03;;
29416;SDS011;28421;51.030;4.006;2022-12-22T12:57:56;12.30;;;5.78;;
29416;SDS011;28421;51.030;4.006;2022-12-22T13:02:55;10.88;;;6.05;;
29416;SDS011;28421;51.030;4.006;2022-12-22T13:23:44;11.48;;;4.60;;
29416;SDS011;28421;51.030;4.006;2022-12-22T13:26:41;8.02;;;4.85;;
29416;SDS011;28421;51.030;4.006;2022-12-22T13:32:26;7.40;;;4.35;;
29416;SDS011;28421;51.030;4.006;2022-12-22T13:34:58;7.13;;;4.72;;
29416;SDS011;28421;51.030;4.006;2022-12-22T13:37:29;8.18;;;5.07;;
29416;SDS011;28421;51.030;4.006;2022-12-22T13:43:23;9.82;;;6.40;;
29416;SDS011;28421;51.030;4.006;2022-12-22T13:45:38;8.25;;;5.78;;
29416;SDS011;28421;51.030;4.006;2022-12-22T13:48:12;6.60;;;5.25;;
29416;SDS011;28421;51.030;4.006;2022-12-22T13:50:52;14.70;;;5.82;;
29416;SDS011;28421;51.030;4.006;2022-12-22T13:53:31;10.20;;;6.43;;
29416;SDS011;28421;51.030;4.006;2022-12-22T13:56:16;10.27;;;6.63;;
29416;SDS011;28421;51.030;4.006;2022-12-22T13:58:45;7.65;;;6.28;;
29416;SDS011;28421;51.030;4.006;2022-12-22T14:01:16;7.78;;;6.43;;
29416;SDS011;28421;51.030;4.006;2022-12-22T14:03:59;11.60;;;6.07;;
29416;SDS011;28421;51.030;4.006;2022-12-22T14:06:32;7.07;;;5.30;;
29416;SDS011;28421;51.030;4.006;2022-12-22T14:09:19;9.68;;;6.13;;
29416;SDS011;28421;51.030;4.006;2022-12-22T14:14:25;8.02;;;5.53;;
29416;SDS011;28421;51.030;4.006;2022-12-22T14:16:53;13.15;;;6.90;;
29416;SDS011;28421;51.030;4.006;2022-12-22T14:19:21;12.13;;;8.15;;
29416;SDS011;28421;51.030;4.006;2022-12-22T14:22:10;18.35;;;12.02;;
29416;SDS011;28421;51.030;4.006;2022-12-22T14:24:48;10.02;;;7.30;;
29416;SDS011;28421;51.030;4.006;2022-12-22T14:30:05;11.13;;;6.55;;
29416;SDS011;28421;51.030;4.006;2022-12-22T14:32:47;20.55;;;7.82;;
29416;SDS011;28421;51.030;4.006;2022-12-22T14:42:55;8.85;;;6.25;;
29416;SDS011;28421;51.030;4.006;2022-12-22T14:45:22;17.13;;;5.85;;
29416;SDS011;28421;51.030;4.006;2022-12-22T14:47:48;18.80;;;7.00;;
29416;SDS011;28421;51.030;4.006;2022-12-22T14:50:17;23.35;;;6.70;;
29416;SDS011;28421;51.030;4.006;2022-12-22T14:52:46;18.17;;;7.55;;
29416;SDS011;28421;51.030;4.006;2022-12-22T14:58:24;19.30;;;6.80;;
29416;SDS011;28421;51.030;4.006;2022-12-22T15:01:18;10.18;;;6.55;;
29416;SDS011;28421;51.030;4.006;2022-12-22T15:03:59;26.45;;;7.20;;
29416;SDS011;28421;51.030;4.006;2022-12-22T15:06:37;13.38;;;7.13;;
29416;SDS011;28421;51.030;4.006;2022-12-22T15:09:07;23.77;;;6.60;;
29416;SDS011;28421;51.030;4.006;2022-12-22T15:11:39;26.60;;;9.60;;
29416;SDS011;28421;51.030;4.006;2022-12-22T15:14:16;21.05;;;7.32;;
29416;SDS011;28421;51.030;4.006;2022-12-22T15:16:46;27.63;;;9.90;;
29416;SDS011;28421;51.030;4.006;2022-12-22T15:19:16;20.80;;;7.70;;
29416;SDS011;28421;51.030;4.006;2022-12-22T15:21:44;29.40;;;8.00;;
29416;SDS011;28421;51.030;4.006;2022-12-22T15:24:10;27.63;;;7.72;;
29416;SDS011;28421;51.030;4.006;2022-12-22T15:26:39;38.00;;;8.77;;
29416;SDS011;28421;51.030;4.006;2022-12-22T15:29:05;32.28;;;8.57;;
29416;SDS011;28421;51.030;4.006;2022-12-22T15:31:31;33.40;;;8.07;;
29416;SDS011;28421;51.030;4.006;2022-12-22T15:33:58;40.00;;;8.65;;
29416;SDS011;28421;51.030;4.006;2022-12-22T15:36:26;27.60;;;7.88;;
29416;SDS011;28421;51.030;4.006;2022-12-22T15:38:51;30.35;;;8.32;;
29416;SDS011;28421;51.030;4.006;2022-12-22T15:41:17;29.73;;;8.27;;
29416;SDS011;28421;51.030;4.006;2022-12-22T15:43:42;34.03;;;8.63;;
29416;SDS011;28421;51.030;4.006;2022-12-22T15:46:09;30.45;;;8.82;;
29416;SDS011;28421;51.030;4.006;2022-12-22T15:48:38;35.95;;;9.02;;
29416;SDS011;28421;51.030;4.006;2022-12-22T15:51:04;26.58;;;8.77;;
29416;SDS011;28421;51.030;4.006;2022-12-22T15:53:35;24.23;;;7.97;;
29416;SDS011;28421;51.030;4.006;2022-12-22T15:56:01;29.25;;;9.10;;
29416;SDS011;28421;51.030;4.006;2022-12-22T15:58:31;41.97;;;8.25;;
29416;SDS011;28421;51.030;4.006;2022-12-22T16:00:58;17.63;;;5.65;;
29416;SDS011;28421;51.030;4.006;2022-12-22T16:03:24;32.92;;;8.80;;
29416;SDS011;28421;51.030;4.006;2022-12-22T16:05:49;40.70;;;8.43;;
29416;SDS011;28421;51.030;4.006;2022-12-22T16:08:18;46.58;;;8.18;;
29416;SDS011;28421;51.030;4.006;2022-12-22T16:10:47;32.83;;;8.77;;
29416;SDS011;28421;51.030;4.006;2022-12-22T16:13:14;38.00;;;8.15;;
29416;SDS011;28421;51.030;4.006;2022-12-22T16:15:41;40.25;;;8.98;;
29416;SDS011;28421;51.030;4.006;2022-12-22T16:18:09;34.05;;;8.90;;
29416;SDS011;28421;51.030;4.006;2022-12-22T16:20:38;47.63;;;8.60;;
29416;SDS011;28421;51.030;4.006;2022-12-22T16:23:05;29.50;;;6.95;;
29416;SDS011;28421;51.030;4.006;2022-12-22T16:25:37;41.05;;;9.60;;
29416;SDS011;28421;51.030;4.006;2022-12-22T16:28:03;40.03;;;10.07;;
29416;SDS011;28421;51.030;4.006;2022-12-22T16:30:31;33.40;;;7.95;;
29416;SDS011;28421;51.030;4.006;2022-12-22T16:32:58;43.47;;;9.20;;
29416;SDS011;28421;51.030;4.006;2022-12-22T16:35:25;29.70;;;7.60;;
29416;SDS011;28421;51.030;4.006;2022-12-22T16:37:54;57.00;;;9.73;;
29416;SDS011;28421;51.030;4.006;2022-12-22T16:40:20;44.30;;;8.50;;
29416;SDS011;28421;51.030;4.006;2022-12-22T16:42:59;47.72;;;9.93;;
29416;SDS011;28421;51.030;4.006;2022-12-22T16:45:28;57.05;;;10.13;;
29416;SDS011;28421;51.030;4.006;2022-12-22T16:47:56;45.63;;;9.05;;
29416;SDS011;28421;51.030;4.006;2022-12-22T16:50:28;58.88;;;10.20;;
29416;SDS011;28421;51.030;4.006;2022-12-22T16:53:01;45.85;;;10.25;;
29416;SDS011;28421;51.030;4.006;2022-12-22T16:55:29;41.42;;;8.68;;
29416;SDS011;28421;51.030;4.006;2022-12-22T16:57:55;59.63;;;9.30;;
29416;SDS011;28421;51.030;4.006;2022-12-22T17:00:26;45.40;;;8.50;;
29416;SDS011;28421;51.030;4.006;2022-12-22T17:02:55;48.00;;;9.55;;
29416;SDS011;28421;51.030;4.006;2022-12-22T17:05:28;44.92;;;8.60;;
29416;SDS011;28421;51.030;4.006;2022-12-22T17:07:57;39.83;;;8.88;;
29416;SDS011;28421;51.030;4.006;2022-12-22T17:10:24;38.28;;;8.68;;
29416;SDS011;28421;51.030;4.006;2022-12-22T17:12:50;50.72;;;9.80;;
29416;SDS011;28421;51.030;4.006;2022-12-22T17:15:19;38.67;;;8.32;;
29416;SDS011;28421;51.030;4.006;2022-12-22T17:17:46;40.80;;;8.05;;
29416;SDS011;28421;51.030;4.006;2022-12-22T17:20:13;53.78;;;10.52;;
29416;SDS011;28421;51.030;4.006;2022-12-22T17:22:39;36.17;;;8.73;;
29416;SDS011;28421;51.030;4.006;2022-12-22T17:25:09;49.28;;;8.38;;
29416;SDS011;28421;51.030;4.006;2022-12-22T17:27:44;54.20;;;9.20;;
29416;SDS011;28421;51.030;4.006;2022-12-22T17:30:17;42.85;;;8.73;;
29416;SDS011;28421;51.030;4.006;2022-12-22T17:32:44;40.42;;;8.75;;
29416;SDS011;28421;51.030;4.006;2022-12-22T17:35:14;40.63;;;9.40;;
29416;SDS011;28421;51.030;4.006;2022-12-22T17:37:41;38.55;;;8.52;;
29416;SDS011;28421;51.030;4.006;2022-12-22T17:40:10;35.05;;;6.57;;
29416;SDS011;28421;51.030;4.006;2022-12-22T17:42:44;51.65;;;9.15;;
29416;SDS011;28421;51.030;4.006;2022-12-22T17:45:13;36.63;;;8.63;;
29416;SDS011;28421;51.030;4.006;2022-12-22T17:47:40;38.08;;;6.55;;
29416;SDS011;28421;51.030;4.006;2022-12-22T17:50:06;52.30;;;8.23;;
29416;SDS011;28421;51.030;4.006;2022-12-22T17:52:34;41.05;;;7.60;;
29416;SDS011;28421;51.030;4.006;2022-12-22T17:54:59;40.10;;;8.45;;
29416;SDS011;28421;51.030;4.006;2022-12-22T17:57:27;33.88;;;6.85;;
29416;SDS011;28421;51.030;4.006;2022-12-22T17:59:56;30.58;;;6.28;;
29416;SDS011;28421;51.030;4.006;2022-12-22T18:02:22;35.10;;;6.63;;
29416;SDS011;28421;51.030;4.006;2022-12-22T18:04:49;30.65;;;7.30;;
29416;SDS011;28421;51.030;4.006;2022-12-22T18:07:17;32.17;;;7.82;;
29416;SDS011;28421;51.030;4.006;2022-12-22T18:09:45;37.67;;;7.28;;
29416;SDS011;28421;51.030;4.006;2022-12-22T18:12:13;37.25;;;8.20;;
29416;SDS011;28421;51.030;4.006;2022-12-22T18:14:41;31.17;;;6.22;;
29416;SDS011;28421;51.030;4.006;2022-12-22T18:17:23;39.08;;;7.32;;
29416;SDS011;28421;51.030;4.006;2022-12-22T18:19:53;25.80;;;6.65;;
29416;SDS011;28421;51.030;4.006;2022-12-22T18:22:20;26.80;;;6.38;;
29416;SDS011;28421;51.030;4.006;2022-12-22T18:24:50;37.33;;;6.80;;
29416;SDS011;28421;51.030;4.006;2022-12-22T18:27:17;26.88;;;6.28;;
29416;SDS011;28421;51.030;4.006;2022-12-22T18:29:43;33.25;;;7.38;;
29416;SDS011;28421;51.030;4.006;2022-12-22T18:32:11;29.02;;;6.47;;
29416;SDS011;28421;51.030;4.006;2022-12-22T18:34:37;33.88;;;6.35;;
29416;SDS011;28421;51.030;4.006;2022-12-22T18:37:04;34.63;;;5.95;;
29416;SDS011;28421;51.030;4.006;2022-12-22T18:39:35;23.40;;;6.53;;
29416;SDS011;28421;51.030;4.006;2022-12-22T18:42:01;28.90;;;6.65;;
29416;SDS011;28421;51.030;4.006;2022-12-22T18:44:27;25.40;;;7.28;;
29416;SDS011;28421;51.030;4.006;2022-12-22T18:46:52;16.65;;;4.95;;
29416;SDS011;28421;51.030;4.006;2022-12-22T18:49:17;27.25;;;6.07;;
29416;SDS011;28421;51.030;4.006;2022-12-22T18:51:43;29.52;;;7.28;;
29416;SDS011;28421;51.030;4.006;2022-12-22T18:54:30;27.13;;;7.05;;
29416;SDS011;28421;51.030;4.006;2022-12-22T18:57:00;24.75;;;5.15;;
29416;SDS011;28421;51.030;4.006;2022-12-22T18:59:27;25.27;;;5.45;;
29416;SDS011;28421;51.030;4.006;2022-12-22T19:02:01;28.73;;;7.63;;
29416;SDS011;28421;51.030;4.006;2022-12-22T19:04:38;17.85;;;5.40;;
29416;SDS011;28421;51.030;4.006;2022-12-22T19:07:04;20.25;;;5.70;;
29416;SDS011;28421;51.030;4.006;2022-12-22T19:09:29;19.27;;;5.63;;
29416;SDS011;28421;51.030;4.006;2022-12-22T19:11:55;30.80;;;6.22;;
29416;SDS011;28421;51.030;4.006;2022-12-22T19:14:20;28.80;;;7.38;;
29416;SDS011;28421;51.030;4.006;2022-12-22T19:16:46;20.33;;;4.78;;
29416;SDS011;28421;51.030;4.006;2022-12-22T19:19:15;18.48;;;5.60;;
29416;SDS011;28421;51.030;4.006;2022-12-22T19:21:44;20.52;;;5.57;;
29416;SDS011;28421;51.030;4.006;2022-12-22T19:24:10;15.65;;;5.88;;
29416;SDS011;28421;51.030;4.006;2022-12-22T19:26:36;25.65;;;6.60;;
29416;SDS011;28421;51.030;4.006;2022-12-22T19:29:01;21.60;;;6.55;;
29416;SDS011;28421;51.030;4.006;2022-12-22T19:31:29;21.80;;;5.75;;
29416;SDS011;28421;51.030;4.006;2022-12-22T19:33:57;23.63;;;7.22;;
29416;SDS011;28421;51.030;4.006;2022-12-22T19:36:25;25.67;;;7.00;;
29416;SDS011;28421;51.030;4.006;2022-12-22T19:38:52;30.98;;;8.73;;
29416;SDS011;28421;51.030;4.006;2022-12-22T19:41:33;20.48;;;7.15;;
29416;SDS011;28421;51.030;4.006;2022-12-22T19:44:04;36.03;;;8.32;;
29416;SDS011;28421;51.030;4.006;2022-12-22T19:46:31;42.13;;;11.82;;
29416;SDS011;28421;51.030;4.006;2022-12-22T19:48:58;25.17;;;9.98;;
29416;SDS011;28421;51.030;4.006;2022-12-22T19:51:23;29.30;;;10.52;;
29416;SDS011;28421;51.030;4.006;2022-12-22T19:53:49;32.92;;;11.10;;
29416;SDS011;28421;51.030;4.006;2022-12-22T19:56:21;38.83;;;12.63;;
29416;SDS011;28421;51.030;4.006;2022-12-22T19:58:51;37.30;;;12.38;;
29416;SDS011;28421;51.030;4.006;2022-12-22T20:01:18;37.25;;;14.07;;
29416;SDS011;28421;51.030;4.006;2022-12-22T20:03:44;30.92;;;12.95;;
29416;SDS011;28421;51.030;4.006;2022-12-22T20:06:09;39.47;;;14.43;;
29416;SDS011;28421;51.030;4.006;2022-12-22T20:08:35;38.88;;;13.75;;
29416;SDS011;28421;51.030;4.006;2022-12-22T20:11:00;37.20;;;13.52;;
29416;SDS011;28421;51.030;4.006;2022-12-22T20:13:29;43.45;;;14.63;;
29416;SDS011;28421;51.030;4.006;2022-12-22T20:15:55;37.85;;;14.35;;
29416;SDS011;28421;51.030;4.006;2022-12-22T20:18:22;41.03;;;16.05;;
29416;SDS011;28421;51.030;4.006;2022-12-22T20:20:59;46.83;;;16.10;;
29416;SDS011;28421;51.030;4.006;2022-12-22T20:23:27;41.25;;;14.40;;
29416;SDS011;28421;51.030;4.006;2022-12-22T20:25:56;33.38;;;13.50;;
29416;SDS011;28421;51.030;4.006;2022-12-22T20:28:28;33.80;;;14.05;;
29416;SDS011;28421;51.030;4.006;2022-12-22T20:30:56;37.45;;;14.57;;
29416;SDS011;28421;51.030;4.006;2022-12-22T20:33:22;39.05;;;13.80;;
29416;SDS011;28421;51.030;4.006;2022-12-22T20:35:49;35.97;;;13.90;;
29416;SDS011;28421;51.030;4.006;2022-12-22T20:38:37;30.98;;;13.55;;
29416;SDS011;28421;51.030;4.006;2022-12-22T20:41:05;26.58;;;12.25;;
29416;SDS011;28421;51.030;4.006;2022-12-22T20:43:32;33.03;;;11.70;;
29416;SDS011;28421;51.030;4.006;2022-12-22T20:46:09;27.80;;;11.70;;
29416;SDS011;28421;51.030;4.006;2022-12-22T20:48:49;37.22;;;12.55;;
29416;SDS011;28421;51.030;4.006;2022-12-22T20:51:26;28.15;;;10.75;;
29416;SDS011;28421;51.030;4.006;2022-12-22T20:53:56;21.83;;;8.93;;
29416;SDS011;28421;51.030;4.006;2022-12-22T20:58:54;26.25;;;9.18;;
29416;SDS011;28421;51.030;4.006;2022-12-22T21:01:20;28.88;;;9.60;;
29416;SDS011;28421;51.030;4.006;2022-12-22T21:03:47;29.38;;;8.88;;
29416;SDS011;28421;51.030;4.006;2022-12-22T21:06:29;25.33;;;8.80;;
29416;SDS011;28421;51.030;4.006;2022-12-22T21:08:58;34.47;;;10.40;;
29416;SDS011;28421;51.030;4.006;2022-12-22T21:11:25;30.90;;;10.15;;
29416;SDS011;28421;51.030;4.006;2022-12-22T21:13:51;17.83;;;8.40;;
29416;SDS011;28421;51.030;4.006;2022-12-22T21:16:18;32.70;;;9.30;;
29416;SDS011;28421;51.030;4.006;2022-12-22T21:18:47;24.02;;;8.52;;
29416;SDS011;28421;51.030;4.006;2022-12-22T21:21:13;27.05;;;9.57;;
29416;SDS011;28421;51.030;4.006;2022-12-22T21:23:39;25.17;;;7.32;;
29416;SDS011;28421;51.030;4.006;2022-12-22T21:26:04;16.00;;;7.10;;
29416;SDS011;28421;51.030;4.006;2022-12-22T21:28:40;19.52;;;6.85;;
29416;SDS011;28421;51.030;4.006;2022-12-22T21:31:05;19.58;;;7.55;;
29416;SDS011;28421;51.030;4.006;2022-12-22T21:33:31;19.25;;;6.43;;
29416;SDS011;28421;51.030;4.006;2022-12-22T21:35:57;16.27;;;7.22;;
29416;SDS011;28421;51.030;4.006;2022-12-22T21:38:25;25.25;;;6.97;;
29416;SDS011;28421;51.030;4.006;2022-12-22T21:40:53;15.77;;;7.18;;
29416;SDS011;28421;51.030;4.006;2022-12-22T21:43:18;18.63;;;6.10;;
29416;SDS011;28421;51.030;4.006;2022-12-22T21:45:44;29.63;;;7.85;;
29416;SDS011;28421;51.030;4.006;2022-12-22T21:48:14;18.90;;;6.32;;
29416;SDS011;28421;51.030;4.006;2022-12-22T21:50:43;19.48;;;7.00;;
29416;SDS011;28421;51.030;4.006;2022-12-22T21:53:09;17.85;;;6.25;;
29416;SDS011;28421;51.030;4.006;2022-12-22T21:55:37;15.35;;;6.78;;
29416;SDS011;28421;51.030;4.006;2022-12-22T21:58:04;19.38;;;7.45;;
29416;SDS011;28421;51.030;4.006;2022-12-22T22:00:31;19.90;;;6.97;;
